createdAt,value
2023-02-15T00:00:12.041Z,99.90
2023-02-15T00:02:40.531Z,99.90
2023-02-15T00:05:09.146Z,99.90
2023-02-15T00:07:36.780Z,99.90
2023-02-15T00:10:05.613Z,99.90
2023-02-15T00:12:33.372Z,99.90
2023-02-15T00:15:01.017Z,99.90
2023-02-15T00:17:29.467Z,99.90
2023-02-15T00:19:56.992Z,99.90
2023-02-15T00:22:24.535Z,99.90
2023-02-15T00:24:52.062Z,99.90
2023-02-15T00:27:19.590Z,99.90
2023-02-15T00:29:48.622Z,99.90
2023-02-15T00:32:16.191Z,99.90
2023-02-15T00:34:44.357Z,99.90
2023-02-15T00:37:11.995Z,99.90
2023-02-15T00:39:39.481Z,99.90
2023-02-15T00:42:07.157Z,99.90
2023-02-15T00:44:34.669Z,99.90
2023-02-15T00:47:02.208Z,99.90
2023-02-15T00:49:29.984Z,99.90
2023-02-15T00:51:57.483Z,99.90
2023-02-15T00:54:24.959Z,99.90
2023-02-15T00:56:52.521Z,99.90
2023-02-15T00:59:20.066Z,99.90
2023-02-15T01:01:49.072Z,99.90
2023-02-15T01:04:16.649Z,99.90
2023-02-15T01:06:44.194Z,99.90
2023-02-15T01:09:13.465Z,99.90
2023-02-15T01:11:41.011Z,99.90
2023-02-15T01:14:08.590Z,99.90
2023-02-15T01:16:39.830Z,99.90
2023-02-15T01:19:07.539Z,99.90
2023-02-15T01:21:35.506Z,99.90
2023-02-15T01:24:04.476Z,99.90
2023-02-15T01:26:32.029Z,99.90
2023-02-15T01:28:59.967Z,99.90
2023-02-15T01:31:27.804Z,99.90
2023-02-15T01:33:55.437Z,99.90
2023-02-15T01:36:22.969Z,99.90
2023-02-15T01:38:50.591Z,99.90
2023-02-15T01:41:21.089Z,99.90
2023-02-15T01:43:51.165Z,99.90
2023-02-15T01:46:25.875Z,99.90
2023-02-15T01:49:03.640Z,99.90
2023-02-15T01:51:35.623Z,99.90
2023-02-15T01:54:17.679Z,99.90
2023-02-15T01:56:45.866Z,99.90
2023-02-15T01:59:20.812Z,99.90
2023-02-15T02:01:54.144Z,99.90
2023-02-15T02:04:42.564Z,99.90
2023-02-15T02:07:13.409Z,99.90
2023-02-15T02:09:41.107Z,99.90
2023-02-15T02:12:10.538Z,99.90
2023-02-15T02:14:41.945Z,99.90
2023-02-15T02:17:40.601Z,99.90
2023-02-15T02:20:39.139Z,99.90
2023-02-15T02:23:37.805Z,99.90
2023-02-15T02:26:39.883Z,99.90
2023-02-15T02:30:00.546Z,99.90
2023-02-15T02:33:18.288Z,99.90
2023-02-15T02:36:42.134Z,99.90
2023-02-15T02:39:34.376Z,99.90
2023-02-15T02:42:17.290Z,99.90
2023-02-15T02:45:02.559Z,99.90
2023-02-15T02:47:54.618Z,99.90
2023-02-15T02:50:29.071Z,99.90
2023-02-15T02:52:59.800Z,99.90
2023-02-15T02:55:52.747Z,99.90
2023-02-15T02:58:49.408Z,99.90
2023-02-15T03:01:25.651Z,99.90
2023-02-15T03:04:03.250Z,99.90
2023-02-15T03:06:59.364Z,99.90
2023-02-15T03:09:54.564Z,99.90
2023-02-15T03:12:29.224Z,99.90
2023-02-15T03:15:15.885Z,99.90
2023-02-15T03:17:49.516Z,99.90
2023-02-15T03:20:33.242Z,99.90
2023-02-15T03:23:11.435Z,99.90
2023-02-15T03:25:44.368Z,99.90
2023-02-15T03:28:20.200Z,99.90
2023-02-15T03:30:54.384Z,99.90
2023-02-15T03:33:24.657Z,99.90
2023-02-15T03:36:21.140Z,99.90
2023-02-15T03:39:08.467Z,99.90
2023-02-15T03:41:46.662Z,99.90
2023-02-15T03:44:31.535Z,99.90
2023-02-15T03:47:18.661Z,99.90
2023-02-15T03:50:31.271Z,99.90
2023-02-15T03:53:02.475Z,99.90
2023-02-15T03:55:30.356Z,99.90
2023-02-15T03:58:16.542Z,99.90
2023-02-15T04:01:18.001Z,99.90
2023-02-15T04:04:01.062Z,99.90
2023-02-15T04:06:28.562Z,99.90
2023-02-15T04:09:14.708Z,99.90
2023-02-15T04:11:42.186Z,99.90
2023-02-15T04:14:28.445Z,99.90
2023-02-15T04:16:56.147Z,99.90
2023-02-15T04:19:41.963Z,99.90
2023-02-15T04:22:28.134Z,99.90
2023-02-15T04:25:12.373Z,99.90
2023-02-15T04:27:44.339Z,99.90
2023-02-15T04:30:14.081Z,99.90
2023-02-15T04:32:41.892Z,99.90
2023-02-15T04:35:10.749Z,99.90
2023-02-15T04:37:39.550Z,99.90
2023-02-15T04:40:09.401Z,99.90
2023-02-15T04:42:37.096Z,99.90
2023-02-15T04:45:05.512Z,99.90
2023-02-15T04:47:33.214Z,99.90
2023-02-15T04:50:00.707Z,99.90
2023-02-15T04:52:28.581Z,99.90
2023-02-15T04:54:56.823Z,99.90
2023-02-15T04:57:24.341Z,99.90
2023-02-15T04:59:51.930Z,99.90
2023-02-15T05:02:19.471Z,99.90
2023-02-15T05:04:47.026Z,99.90
2023-02-15T05:07:15.703Z,99.90
2023-02-15T05:09:43.313Z,99.90
2023-02-15T05:12:10.868Z,99.90
2023-02-15T05:14:38.360Z,99.90
2023-02-15T05:17:06.272Z,99.90
2023-02-15T05:19:33.780Z,99.90
2023-02-15T05:22:01.310Z,99.90
2023-02-15T05:24:47.371Z,99.90
2023-02-15T05:27:33.700Z,99.90
2023-02-15T05:30:01.433Z,99.90
2023-02-15T05:32:29.200Z,99.90
2023-02-15T05:34:56.806Z,99.90
2023-02-15T05:37:24.363Z,99.90
2023-02-15T05:39:51.867Z,99.90
2023-02-15T05:42:19.391Z,99.90
2023-02-15T05:44:46.916Z,99.90
2023-02-15T05:47:14.428Z,99.90
2023-02-15T05:49:41.974Z,99.90
2023-02-15T05:52:09.535Z,99.90
2023-02-15T05:54:37.057Z,99.90
2023-02-15T05:57:04.542Z,99.90
2023-02-15T05:59:32.021Z,99.90
2023-02-15T06:01:59.621Z,99.90
2023-02-15T06:04:27.384Z,99.90
2023-02-15T06:06:54.900Z,99.90
2023-02-15T06:09:22.426Z,99.90
2023-02-15T06:11:49.924Z,99.90
2023-02-15T06:14:17.558Z,99.90
2023-02-15T06:16:45.121Z,99.90
2023-02-15T06:19:12.679Z,99.90
2023-02-15T06:21:40.184Z,99.90
2023-02-15T06:24:10.038Z,99.90
2023-02-15T06:26:37.623Z,99.90
2023-02-15T06:29:05.432Z,99.90
2023-02-15T06:31:33.108Z,99.90
2023-02-15T06:34:03.652Z,99.90
2023-02-15T06:36:32.662Z,99.90
2023-02-15T06:39:00.199Z,99.90
2023-02-15T06:41:27.693Z,99.90
2023-02-15T06:43:55.259Z,99.90
2023-02-15T06:46:22.848Z,99.90
2023-02-15T06:48:50.416Z,99.90
2023-02-15T06:51:17.893Z,99.90
2023-02-15T06:53:45.412Z,99.90
2023-02-15T06:56:13.014Z,99.90
2023-02-15T06:58:41.741Z,99.90
2023-02-15T07:01:10.227Z,99.90
2023-02-15T07:03:37.863Z,99.90
2023-02-15T07:06:09.107Z,99.90
2023-02-15T07:08:38.394Z,99.90
2023-02-15T07:11:25.925Z,99.90
2023-02-15T07:13:53.596Z,99.90
2023-02-15T07:16:21.692Z,99.90
2023-02-15T07:18:49.249Z,99.90
2023-02-15T07:21:16.753Z,99.90
2023-02-15T07:23:44.264Z,99.90
2023-02-15T07:26:12.084Z,99.90
2023-02-15T07:28:39.621Z,99.90
2023-02-15T07:31:07.253Z,99.90
2023-02-15T07:33:35.557Z,99.90
2023-02-15T07:36:05.224Z,99.90
2023-02-15T07:38:37.948Z,99.90
2023-02-15T07:41:12.433Z,99.90
2023-02-15T07:43:43.425Z,99.90
2023-02-15T07:46:15.805Z,99.90
2023-02-15T07:48:44.745Z,99.90
2023-02-15T07:51:13.462Z,99.90
2023-02-15T07:53:41.709Z,99.90
2023-02-15T07:56:13.196Z,99.90
2023-02-15T07:58:53.718Z,99.90
2023-02-15T08:01:41.471Z,99.90
2023-02-15T08:04:11.948Z,99.90
2023-02-15T08:06:40.024Z,99.90
2023-02-15T08:09:09.578Z,99.90
2023-02-15T08:11:40.558Z,99.90
2023-02-15T08:14:12.501Z,99.90
2023-02-15T08:16:52.229Z,99.90
2023-02-15T08:19:32.819Z,99.90
2023-02-15T08:22:05.010Z,99.90
2023-02-15T08:24:37.907Z,99.90
2023-02-15T08:27:08.182Z,99.90
2023-02-15T08:29:37.592Z,99.90
2023-02-15T08:32:10.019Z,99.90
2023-02-15T08:34:41.808Z,99.90
2023-02-15T08:37:10.252Z,99.90
2023-02-15T08:39:37.902Z,99.90
2023-02-15T08:42:05.577Z,99.90
2023-02-15T08:44:33.071Z,99.90
2023-02-15T08:47:06.293Z,99.90
2023-02-15T08:49:34.080Z,99.90
2023-02-15T08:52:01.710Z,99.90
2023-02-15T08:54:29.617Z,99.90
2023-02-15T08:56:57.165Z,99.90
2023-02-15T08:59:27.606Z,99.90
2023-02-15T09:01:56.196Z,99.90
2023-02-15T09:04:24.239Z,99.90
2023-02-15T09:06:53.079Z,99.90
2023-02-15T09:09:21.931Z,99.90
2023-02-15T09:11:56.744Z,99.90
2023-02-15T09:14:27.918Z,99.90
2023-02-15T09:16:55.968Z,99.90
2023-02-15T09:19:24.640Z,99.90
2023-02-15T09:21:52.516Z,99.90
2023-02-15T09:24:20.238Z,99.90
2023-02-15T09:26:49.492Z,99.90
2023-02-15T09:29:18.715Z,99.90
2023-02-15T09:31:50.746Z,99.90
2023-02-15T09:34:22.872Z,99.90
2023-02-15T09:36:51.134Z,99.90
2023-02-15T09:39:28.891Z,99.90
2023-02-15T09:42:53.729Z,99.90
2023-02-15T09:45:51.638Z,99.90
2023-02-15T09:48:43.367Z,99.90
2023-02-15T09:51:27.852Z,99.90
2023-02-15T09:54:09.527Z,99.90
2023-02-15T09:57:32.772Z,99.90
2023-02-15T10:00:25.323Z,99.90
2023-02-15T10:03:18.445Z,99.90
2023-02-15T10:06:16.890Z,99.90
2023-02-15T10:09:19.434Z,99.90
2023-02-15T10:12:11.566Z,99.90
2023-02-15T10:14:57.109Z,99.90
2023-02-15T10:18:11.582Z,99.90
2023-02-15T10:20:57.660Z,99.90
2023-02-15T10:23:30.767Z,99.90
2023-02-15T10:26:18.505Z,99.90
2023-02-15T10:29:08.152Z,99.90
2023-02-15T10:32:08.410Z,99.90
2023-02-15T10:35:02.587Z,99.90
2023-02-15T10:37:46.394Z,99.90
2023-02-15T10:40:49.397Z,99.90
2023-02-15T10:43:16.792Z,99.90
2023-02-15T10:46:27.753Z,99.90
2023-02-15T10:49:22.669Z,99.90
2023-02-15T10:52:24.580Z,99.90
2023-02-15T10:55:24.900Z,99.90
2023-02-15T10:58:07.142Z,99.90
2023-02-15T11:01:14.767Z,99.90
2023-02-15T11:03:53.529Z,99.90
2023-02-15T11:06:23.749Z,99.90
2023-02-15T11:09:11.412Z,99.90
2023-02-15T11:11:43.345Z,99.90
2023-02-15T11:15:15.324Z,99.90
2023-02-15T11:18:31.000Z,99.90
2023-02-15T11:21:27.737Z,99.90
2023-02-15T11:23:56.301Z,99.90
2023-02-15T11:26:39.206Z,99.90
2023-02-15T11:29:26.877Z,99.90
2023-02-15T11:32:31.002Z,99.90
2023-02-15T11:35:20.967Z,99.90
2023-02-15T11:38:01.114Z,99.90
2023-02-15T11:40:34.883Z,99.90
2023-02-15T11:43:12.637Z,99.90
2023-02-15T11:45:43.746Z,99.90
2023-02-15T11:48:14.912Z,99.90
2023-02-15T11:50:46.042Z,99.90
2023-02-15T11:53:22.033Z,99.90
2023-02-15T11:55:54.168Z,99.90
2023-02-15T11:58:43.506Z,99.90
2023-02-15T12:01:43.210Z,99.90
2023-02-15T12:04:35.531Z,99.90
2023-02-15T12:07:37.419Z,99.90
2023-02-15T12:10:20.948Z,99.90
2023-02-15T12:12:48.787Z,99.90
2023-02-15T12:15:33.181Z,99.90
2023-02-15T12:18:00.766Z,99.90
2023-02-15T12:20:34.404Z,99.90
2023-02-15T12:23:13.493Z,99.90
2023-02-15T12:25:55.092Z,99.90
2023-02-15T12:28:41.552Z,99.90
2023-02-15T12:31:25.692Z,99.90
2023-02-15T12:33:58.184Z,99.90
2023-02-15T12:36:31.218Z,99.90
2023-02-15T12:39:13.921Z,99.90
2023-02-15T12:42:00.358Z,99.90
2023-02-15T12:44:33.238Z,99.90
2023-02-15T12:47:08.134Z,99.90
2023-02-15T12:49:39.619Z,99.90
2023-02-15T12:52:26.346Z,99.90
2023-02-15T12:54:53.924Z,99.90
2023-02-15T12:57:33.778Z,99.90
2023-02-15T13:00:21.860Z,99.90
2023-02-15T13:02:53.739Z,99.90
2023-02-15T13:05:45.000Z,99.90
2023-02-15T13:08:18.049Z,99.90
2023-02-15T13:11:10.953Z,99.90
2023-02-15T13:13:54.856Z,99.90
2023-02-15T13:16:37.677Z,99.90
2023-02-15T13:19:32.703Z,99.90
2023-02-15T13:22:06.174Z,99.90
2023-02-15T13:24:49.629Z,99.90
2023-02-15T13:27:22.221Z,99.90
2023-02-15T13:29:59.423Z,99.90
2023-02-15T13:32:37.957Z,99.90
2023-02-15T13:35:09.506Z,99.90
2023-02-15T13:37:59.737Z,99.90
2023-02-15T13:40:53.153Z,99.90
2023-02-15T13:43:30.087Z,99.90
2023-02-15T13:46:18.316Z,99.90
2023-02-15T13:49:17.497Z,99.90
2023-02-15T13:52:17.050Z,99.90
2023-02-15T13:55:30.788Z,99.90
2023-02-15T13:58:32.960Z,99.90
2023-02-15T14:01:16.287Z,99.90
2023-02-15T14:04:08.557Z,99.90
2023-02-15T14:07:21.914Z,99.90
2023-02-15T14:10:38.941Z,99.90
2023-02-15T14:14:02.593Z,99.90
2023-02-15T14:16:35.661Z,99.90
2023-02-15T14:19:33.470Z,99.90
2023-02-15T14:22:23.582Z,99.90
2023-02-15T14:25:13.008Z,99.90
2023-02-15T14:27:55.765Z,99.90
2023-02-15T14:30:42.170Z,99.90
2023-02-15T14:33:41.633Z,99.90
2023-02-15T14:36:16.262Z,99.90
2023-02-15T14:39:27.832Z,99.90
2023-02-15T14:42:05.615Z,99.90
2023-02-15T14:44:43.878Z,99.90
2023-02-15T14:47:27.782Z,99.90
2023-02-15T14:49:55.290Z,99.90
2023-02-15T14:52:22.971Z,99.90
2023-02-15T14:54:50.349Z,99.90
2023-02-15T14:57:17.734Z,99.90
2023-02-15T14:59:53.709Z,99.90
2023-02-15T15:02:41.714Z,99.90
2023-02-15T15:05:46.824Z,99.40
2023-02-15T15:08:39.552Z,97.80
2023-02-15T15:11:41.091Z,97.20
2023-02-15T15:14:11.905Z,96.60
2023-02-15T15:16:39.360Z,96.30
2023-02-15T15:19:12.689Z,95.80
2023-02-15T15:21:49.372Z,94.30
2023-02-15T15:24:38.564Z,93.10
2023-02-15T15:27:51.625Z,92.10
2023-02-15T15:30:19.059Z,91.30
2023-02-15T15:32:55.427Z,91.30
2023-02-15T15:35:38.153Z,90.90
2023-02-15T15:39:01.228Z,90.30
2023-02-15T15:42:11.181Z,89.70
2023-02-15T15:45:35.291Z,88.80
2023-02-15T15:48:39.053Z,87.20
2023-02-15T15:51:28.114Z,87.30
2023-02-15T15:53:56.486Z,87.10
2023-02-15T15:56:32.146Z,86.90
2023-02-15T15:59:13.196Z,86.90
2023-02-15T16:01:44.185Z,86.80
2023-02-15T16:04:28.362Z,86.80
2023-02-15T16:06:56.283Z,86.50
2023-02-15T16:09:27.827Z,86.60
2023-02-15T16:12:01.272Z,86.90
2023-02-15T16:14:33.584Z,86.80
2023-02-15T16:17:06.198Z,86.60
2023-02-15T16:19:39.134Z,86.70
2023-02-15T16:22:22.150Z,86.60
2023-02-15T16:25:19.712Z,86.50
2023-02-15T16:27:48.970Z,86.50
2023-02-15T16:30:31.170Z,87.20
2023-02-15T16:33:13.315Z,87.50
2023-02-15T16:35:55.716Z,87.80
2023-02-15T16:38:43.412Z,87.70
2023-02-15T16:41:17.947Z,88.10
2023-02-15T16:43:49.116Z,88.30
2023-02-15T16:46:41.153Z,88.60
2023-02-15T16:49:27.001Z,88.50
2023-02-15T16:52:04.094Z,88.80
2023-02-15T16:54:32.905Z,89.30
2023-02-15T16:57:00.809Z,89.70
2023-02-15T16:59:37.152Z,89.90
2023-02-15T17:02:11.512Z,89.80
2023-02-15T17:04:40.157Z,90.10
2023-02-15T17:07:20.059Z,90.50
2023-02-15T17:09:56.010Z,90.50
2023-02-15T17:12:47.742Z,91.00
2023-02-15T17:16:05.568Z,91.30
2023-02-15T17:18:46.561Z,92.30
2023-02-15T17:21:26.206Z,92.40
2023-02-15T17:24:05.041Z,92.60
2023-02-15T17:26:36.730Z,93.00
2023-02-15T17:29:37.361Z,92.90
2023-02-15T17:32:13.934Z,93.30
2023-02-15T17:35:19.503Z,93.30
2023-02-15T17:37:50.942Z,93.70
2023-02-15T17:40:25.824Z,93.30
2023-02-15T17:42:53.700Z,92.70
2023-02-15T17:45:23.426Z,92.40
2023-02-15T17:47:51.638Z,92.50
2023-02-15T17:50:27.183Z,92.30
2023-02-15T17:52:57.019Z,92.20
2023-02-15T17:55:41.178Z,92.30
2023-02-15T17:58:15.641Z,92.10
2023-02-15T18:01:06.158Z,91.80
2023-02-15T18:04:07.574Z,91.80
2023-02-15T18:06:57.008Z,91.80
2023-02-15T18:09:44.370Z,92.50
2023-02-15T18:12:28.313Z,92.80
2023-02-15T18:14:58.428Z,93.30
2023-02-15T18:17:34.272Z,93.00
2023-02-15T18:20:05.470Z,93.50
2023-02-15T18:22:33.637Z,93.70
2023-02-15T18:25:01.228Z,94.10
2023-02-15T18:27:28.745Z,94.20
2023-02-15T18:29:56.344Z,93.90
2023-02-15T18:32:32.163Z,93.80
2023-02-15T18:34:59.770Z,93.80
2023-02-15T18:37:33.065Z,93.50
2023-02-15T18:40:03.836Z,93.60
2023-02-15T18:42:35.309Z,93.30
2023-02-15T18:45:17.365Z,93.00
2023-02-15T18:47:46.209Z,92.50
2023-02-15T18:50:16.226Z,93.00
2023-02-15T18:52:46.949Z,92.00
2023-02-15T18:55:21.878Z,92.40
2023-02-15T18:57:52.688Z,92.20
2023-02-15T19:00:28.713Z,92.50
2023-02-15T19:02:57.535Z,92.50
2023-02-15T19:05:29.620Z,92.00
2023-02-15T19:07:59.692Z,92.10
2023-02-15T19:10:30.530Z,91.80
2023-02-15T19:12:58.551Z,91.60
2023-02-15T19:15:30.730Z,91.40
2023-02-15T19:17:58.577Z,91.20
2023-02-15T19:20:31.867Z,91.20
2023-02-15T19:23:01.570Z,90.70
2023-02-15T19:25:33.963Z,90.30
2023-02-15T19:28:03.239Z,90.00
2023-02-15T19:30:32.229Z,89.80
2023-02-15T19:33:01.654Z,89.90
2023-02-15T19:35:35.212Z,90.00
2023-02-15T19:38:07.568Z,89.80
2023-02-15T19:40:36.161Z,89.90
2023-02-15T19:43:03.978Z,89.60
2023-02-15T19:45:32.779Z,89.30
2023-02-15T19:48:03.188Z,89.30
2023-02-15T19:50:33.317Z,89.20
2023-02-15T19:53:02.964Z,89.40
2023-02-15T19:55:35.358Z,88.90
2023-02-15T19:58:02.875Z,87.70
2023-02-15T20:00:34.103Z,86.60
2023-02-15T20:03:01.993Z,84.80
2023-02-15T20:05:31.619Z,84.00
2023-02-15T20:07:59.210Z,82.40
2023-02-15T20:10:31.441Z,82.10
2023-02-15T20:12:59.141Z,81.90
2023-02-15T20:15:33.033Z,81.80
2023-02-15T20:18:06.747Z,81.70
2023-02-15T20:20:50.907Z,79.80
2023-02-15T20:23:31.415Z,80.50
2023-02-15T20:26:01.842Z,79.40
2023-02-15T20:28:31.794Z,81.00
2023-02-15T20:30:59.727Z,80.90
2023-02-15T20:33:27.398Z,81.30
2023-02-15T20:35:55.086Z,81.50
2023-02-15T20:38:29.520Z,81.40
2023-02-15T20:41:18.770Z,81.30
2023-02-15T20:43:46.302Z,81.10
2023-02-15T20:46:13.842Z,81.10
2023-02-15T20:48:41.374Z,80.60
2023-02-15T20:51:18.743Z,80.60
2023-02-15T20:53:47.273Z,80.70
2023-02-15T20:56:23.094Z,81.00
2023-02-15T20:58:51.923Z,80.90
2023-02-15T21:01:20.220Z,80.70
2023-02-15T21:03:48.083Z,80.20
2023-02-15T21:06:18.761Z,79.30
2023-02-15T21:08:46.270Z,79.50
2023-02-15T21:11:23.375Z,79.60
2023-02-15T21:13:51.281Z,79.70
2023-02-15T21:16:19.249Z,79.40
2023-02-15T21:18:46.805Z,79.70
2023-02-15T21:21:23.646Z,79.70
2023-02-15T21:23:52.929Z,79.40
2023-02-15T21:26:22.884Z,79.30
2023-02-15T21:28:50.807Z,78.90
2023-02-15T21:31:25.163Z,79.60
2023-02-15T21:33:52.820Z,79.50
2023-02-15T21:36:24.093Z,79.50
2023-02-15T21:38:53.679Z,79.80
2023-02-15T21:41:42.792Z,79.80
2023-02-15T21:44:46.279Z,79.90
2023-02-15T21:47:45.805Z,79.50
2023-02-15T21:50:43.765Z,79.10
2023-02-15T21:53:19.785Z,78.80
2023-02-15T21:55:47.299Z,78.50
2023-02-15T21:58:21.082Z,78.60
2023-02-15T22:00:49.339Z,78.70
2023-02-15T22:03:17.074Z,79.00
2023-02-15T22:05:44.619Z,78.40
2023-02-15T22:08:14.145Z,78.70
2023-02-15T22:10:43.021Z,78.90
2023-02-15T22:13:19.792Z,79.20
2023-02-15T22:15:47.588Z,79.00
2023-02-15T22:18:33.835Z,79.70
2023-02-15T22:21:03.689Z,78.60
2023-02-15T22:23:31.800Z,78.70
2023-02-15T22:26:11.428Z,78.50
2023-02-15T22:28:41.426Z,78.50
2023-02-15T22:31:15.586Z,78.60
2023-02-15T22:33:44.787Z,78.50
2023-02-15T22:36:28.401Z,78.40
2023-02-15T22:38:57.847Z,78.90
2023-02-15T22:41:31.007Z,79.20
2023-02-15T22:43:58.972Z,79.20
2023-02-15T22:46:27.041Z,79.20
2023-02-15T22:48:55.221Z,79.90
2023-02-15T22:51:24.804Z,80.00
2023-02-15T22:53:53.707Z,81.20
2023-02-15T22:56:52.550Z,80.50
2023-02-15T22:59:29.852Z,80.40
2023-02-15T23:01:57.897Z,81.10
2023-02-15T23:04:28.405Z,81.40
2023-02-15T23:06:58.898Z,82.00
2023-02-15T23:09:26.525Z,82.10
2023-02-15T23:11:54.471Z,82.00
2023-02-15T23:14:35.160Z,82.10
2023-02-15T23:17:02.903Z,82.40
2023-02-15T23:19:30.445Z,82.70
2023-02-15T23:21:58.154Z,82.30
2023-02-15T23:24:31.411Z,82.60
2023-02-15T23:27:19.363Z,82.80
2023-02-15T23:29:47.173Z,84.80
2023-02-15T23:32:15.473Z,84.30
2023-02-15T23:34:43.636Z,83.50
2023-02-15T23:37:12.686Z,83.80
2023-02-15T23:39:58.857Z,84.60
2023-02-15T23:42:33.246Z,85.00
2023-02-15T23:45:02.136Z,85.50
2023-02-15T23:47:52.777Z,86.10
2023-02-15T23:50:30.233Z,86.70
2023-02-15T23:53:00.499Z,86.50
2023-02-15T23:55:48.431Z,87.00
2023-02-15T23:58:23.546Z,87.10
